Terminal Aerodrome Forecast
Issued by NWS

Home | Current Version | Previous Version | Text Only | Print | Product List | Glossary On
Versions: 1 2 3 4 5 6 7 8 9 10 11 12 13 14
000
FTUS45 KBOI 291132
TAFMYL
TAF
KMYL 291132Z 2912/3012 32005KT P6SM VCSH SCT035 OVC050
     FM291500 31010KT P6SM -SHRA SCT015 OVC025
     FM300300 34006KT P6SM VCSH BKN040=

USA.gov is the U.S. government's official web portal to all federal, state and local government web resources and services.